| time (UTC) | temp C | wind direction | speed KPH | gust KPH | rain 1hr cm | rain 24hr cm | rain mn cm | humidity % | barometer mb |
| 20260505213133 | 22 | 188 | 9.7 | 20.9 | 0.00 | 0.00 | 0.00 | 68 | 1016.1 |
| 20260505212233 | 22 | 230 | 8.0 | 24.1 | 0.00 | 0.00 | 0.00 | 69 | 1016.2 |
| 20260505211333 | 22 | 242 | 9.7 | 25.7 | 0.00 | 0.00 | 0.00 | 70 | 1016.3 |
| 20260505210433 | 22 | 211 | 11.3 | 22.5 | 0.00 | 0.00 | 0.00 | 70 | 1016.2 |
| 20260505205533 | 22 | 193 | 11.3 | 25.7 | 0.00 | 0.00 | 0.00 | 69 | 1016.4 |
| 20260505203733 | 23 | 261 | 11.3 | 24.1 | 0.00 | 0.00 | 0.00 | 68 | 1016.4 |
| 20260505202833 | 23 | 266 | 9.7 | 22.5 | 0.00 | 0.00 | 0.00 | 68 | 1016.1 |
| 20260505201933 | 22 | 144 | 8.0 | 17.7 | 0.00 | 0.00 | 0.00 | 67 | 1016.3 |
| 20260505201033 | 23 | 224 | 9.7 | 22.5 | 0.00 | 0.00 | 0.00 | 67 | 1016.3 |
| 20260505200133 | 23 | 226 | 8.0 | 16.1 | 0.00 | 0.00 | 0.00 | 66 | 1016.2 |
| 20260505195233 | 23 | 209 | 9.7 | 22.5 | 0.00 | 0.00 | 0.00 | 65 | 1016.3 |
| 20260505194333 | 23 | 146 | 12.9 | 27.4 | 0.00 | 0.00 | 0.00 | 65 | 1016.5 |
| 20260505193433 | 23 | 232 | 11.3 | 27.4 | 0.00 | 0.00 | 0.00 | 65 | 1016.7 |
| 20260505192533 | 23 | 128 | 11.3 | 24.1 | 0.00 | 0.00 | 0.00 | 64 | 1016.9 |
| 20260505191633 | 23 | 164 | 9.7 | 20.9 | 0.00 | 0.00 | 0.00 | 64 | 1017.1 |
| 20260505190733 | 23 | 196 | 9.7 | 25.7 | 0.00 | 0.00 | 0.00 | 63 | 1017.1 |
| 20260505185833 | 23 | 240 | 11.3 | 27.4 | 0.00 | 0.00 | 0.00 | 65 | 1017.2 |
| 20260505184933 | 23 | 236 | 9.7 | 17.7 | 0.00 | 0.00 | 0.00 | 65 | 1017.1 |
| 20260505184033 | 23 | 193 | 8.0 | 25.7 | 0.00 | 0.00 | 0.00 | 66 | 1017.1 |
| 20260505183133 | 23 | 241 | 8.0 | 16.1 | 0.00 | 0.00 | 0.00 | 65 | 1017.0 |
| 20260505182233 | 24 | 205 | 6.4 | 14.5 | 0.00 | 0.00 | 0.00 | 64 | 1017.1 |
| 20260505181333 | 24 | 169 | 9.7 | 22.5 | 0.00 | 0.00 | 0.00 | 64 | 1017.1 |
| 20260505180433 | 24 | 200 | 8.0 | 20.9 | 0.00 | 0.00 | 0.00 | 64 | 1017.5 |
| 20260505175533 | 25 | 197 | 11.3 | 22.5 | 0.00 | 0.00 | 0.00 | 63 | 1017.5 |
| 20260505174633 | 25 | 228 | 9.7 | 24.1 | 0.00 | 0.00 | 0.00 | 62 | 1017.5 |
| 20260505173733 | 25 | 231 | 8.0 | 22.5 | 0.00 | 0.00 | 0.00 | 63 | 1017.5 |
| 20260505172833 | 25 | 247 | 11.3 | 25.7 | 0.00 | 0.00 | 0.00 | 63 | 1017.6 |
| 20260505171933 | 24 | 247 | 8.0 | 17.7 | 0.00 | 0.00 | 0.00 | 63 | 1017.6 |
| 20260505171033 | 24 | 232 | 8.0 | 20.9 | 0.00 | 0.00 | 0.00 | 62 | 1017.9 |
| 20260505170133 | 24 | 130 | 6.4 | 20.9 | 0.00 | 0.00 | 0.00 | 63 | 1017.8 |
| 20260505165233 | 25 | 178 | 9.7 | 22.5 | 0.00 | 0.00 | 0.00 | 62 | 1017.9 |
| 20260505164333 | 25 | 221 | 9.7 | 25.7 | 0.00 | 0.00 | 0.00 | 62 | 1017.9 |
| 20260505163433 | 24 | 178 | 4.8 | 17.7 | 0.00 | 0.00 | 0.00 | 62 | 1018.0 |
| 20260505162533 | 25 | 107 | 8.0 | 20.9 | 0.00 | 0.00 | 0.00 | 62 | 1018.1 |
| 20260505160733 | 24 | 121 | 8.0 | 20.9 | 0.00 | 0.00 | 0.00 | 58 | 1018.2 |
| 20260505153133 | 26 | 224 | 8.0 | 19.3 | 0.00 | 0.00 | 0.00 | 61 | 1018.1 |
| 20260505152233 | 25 | 196 | 8.0 | 16.1 | 0.00 | 0.00 | 0.00 | 63 | 1018.2 |
| 20260505150433 | 26 | 218 | 6.4 | 20.9 | 0.00 | 0.00 | 0.00 | 61 | 1018.1 |
| 20260505140133 | 25 | 210 | 8.0 | 19.3 | 0.00 | 0.00 | 0.00 | 61 | 1017.9 |
| 20260505124933 | 24 | 229 | 3.2 | 6.4 | 0.00 | 0.00 | 0.00 | 69 | 1017.5 |
| 20260505124034 | 23 | 252 | 1.6 | 4.8 | 0.00 | 0.00 | 0.00 | 73 | 1017.7 |
| 20260505123133 | 23 | 257 | 1.6 | 4.8 | 0.00 | 0.00 | 0.00 | 74 | 1017.7 |
| 20260505122233 | 22 | 211 | 0.0 | 3.2 | 0.00 | 0.00 | 0.00 | 76 | 1017.7 |
| 20260505121333 | 21 | 209 | 0.0 | 0.0 | 0.00 | 0.00 | 0.00 | 77 | 1017.5 |
| 20260505120433 | 20 | 209 | 0.0 | 0.0 | 0.00 | 0.00 | 0.00 | 78 | 1017.5 |
| 20260505115533 | 20 | 209 | 0.0 | 0.0 | 0.00 | 0.00 | 0.00 | 79 | 1017.5 |
| 20260505114633 | 18 | 209 | 0.0 | 0.0 | 0.00 | 0.00 | 0.00 | 81 | 1017.5 |
| 20260505113733 | 17 | 209 | 0.0 | 0.0 | 0.00 | 0.00 | 0.00 | 85 | 1017.4 |
| 20260505112833 | 16 | 209 | 0.0 | 0.0 | 0.00 | 0.00 | 0.00 | 87 | 1017.2 |
| 20260505111933 | 15 | 209 | 0.0 | 0.0 | 0.00 | 0.00 | 0.00 | 90 | 1017.1 |
| 20260505110133 | 13 | 209 | 0.0 | 0.0 | 0.00 | 0.00 | 0.00 | 90 | 1016.8 |
| 20260505101633 | 13 | 209 | 0.0 | 0.0 | 0.00 | 0.00 | 0.00 | 89 | 1016.3 |
| 20260505100733 | 13 | 209 | 0.0 | 0.0 | 0.00 | 0.00 | 0.00 | 89 | 1016.3 |
| 20260505094933 | 13 | 209 | 0.0 | 0.0 | 0.00 | 0.00 | 0.00 | 89 | 1016.1 |
| 20260505093133 | 13 | 209 | 0.0 | 0.0 | 0.00 | 0.00 | 0.00 | 89 | 1016.0 |
| 20260505092233 | 13 | 209 | 0.0 | 0.0 | 0.00 | 0.00 | 0.00 | 88 | 1016.0 |
| 20260505091333 | 13 | 209 | 0.0 | 0.0 | 0.00 | 0.00 | 0.00 | 88 | 1016.0 |
| 20260505090433 | 13 | 209 | 0.0 | 0.0 | 0.00 | 0.00 | 0.00 | 88 | 1015.9 |
| 20260505085533 | 13 | 209 | 0.0 | 0.0 | 0.00 | 0.00 | 0.00 | 88 | 1015.7 |
| 20260505084633 | 13 | 209 | 0.0 | 0.0 | 0.00 | 0.00 | 0.00 | 88 | 1015.7 |
| 20260505082833 | 14 | 209 | 0.0 | 0.0 | 0.00 | 0.00 | 0.00 | 88 | 1015.7 |
| 20260505081933 | 14 | 209 | 0.0 | 0.0 | 0.00 | 0.00 | 0.00 | 88 | 1015.7 |
| 20260505081033 | 14 | 209 | 0.0 | 0.0 | 0.00 | 0.00 | 0.00 | 88 | 1015.7 |
| 20260505080133 | 14 | 209 | 0.0 | 0.0 | 0.00 | 0.00 | 0.00 | 87 | 1015.7 |
| 20260505075233 | 15 | 209 | 0.0 | 0.0 | 0.00 | 0.00 | 0.00 | 87 | 1015.7 |
| 20260505074333 | 15 | 209 | 0.0 | 0.0 | 0.00 | 0.00 | 0.00 | 86 | 1015.7 |
| 20260505073433 | 15 | 209 | 0.0 | 0.0 | 0.00 | 0.00 | 0.00 | 86 | 1015.6 |
| 20260505072533 | 15 | 209 | 0.0 | 1.6 | 0.00 | 0.00 | 0.00 | 86 | 1015.5 |
| 20260505071633 | 15 | 209 | 0.0 | 1.6 | 0.00 | 0.00 | 0.00 | 85 | 1015.6 |
| 20260505070733 | 15 | 209 | 0.0 | 0.0 | 0.00 | 0.00 | 0.00 | 85 | 1015.6 |
| 20260505065833 | 15 | 209 | 0.0 | 1.6 | 0.00 | 0.00 | 0.00 | 85 | 1015.7 |
| 20260505064933 | 15 | 209 | 0.0 | 1.6 | 0.00 | 0.00 | 0.00 | 84 | 1015.7 |
| 20260505064033 | 16 | 209 | 0.0 | 1.6 | 0.00 | 0.00 | 0.00 | 83 | 1015.8 |
| 20260505061334 | 16 | 209 | 0.0 | 1.6 | 0.00 | 0.00 | 0.00 | 81 | 1016.0 |
| 20260505060433 | 17 | 209 | 0.0 | 4.8 | 0.00 | 0.00 | 0.00 | 80 | 1016.1 |
| 20260505055533 | 17 | 209 | 1.6 | 4.8 | 0.00 | 0.00 | 0.00 | 80 | 1016.2 |
| 20260505054633 | 17 | 209 | 1.6 | 4.8 | 0.00 | 0.00 | 0.00 | 80 | 1016.4 |
| 20260505051933 | 17 | 197 | 3.2 | 6.4 | 0.00 | 0.00 | 0.00 | 80 | 1016.6 |
| 20260505051033 | 17 | 224 | 1.6 | 6.4 | 0.00 | 0.00 | 0.00 | 80 | 1016.6 |
| 20260505050133 | 17 | 215 | 3.2 | 6.4 | 0.00 | 0.00 | 0.00 | 80 | 1016.6 |
| 20260505041633 | 17 | 227 | 3.2 | 6.4 | 0.00 | 0.00 | 0.00 | 78 | 1016.5 |
| 20260505040733 | 17 | 235 | 3.2 | 4.8 | 0.00 | 0.00 | 0.00 | 77 | 1016.5 |
| 20260505034934 | 17 | 236 | 3.2 | 8.0 | 0.00 | 0.00 | 0.00 | 76 | 1016.7 |
| 20260505033133 | 17 | 234 | 3.2 | 8.0 | 0.00 | 0.00 | 0.00 | 74 | 1016.6 |
| 20260505032233 | 18 | 233 | 3.2 | 9.7 | 0.00 | 0.00 | 0.00 | 74 | 1016.7 |
| 20260505031333 | 18 | 209 | 3.2 | 11.3 | 0.00 | 0.00 | 0.00 | 73 | 1016.7 |
| 20260505030433 | 18 | 232 | 4.8 | 8.0 | 0.00 | 0.00 | 0.00 | 73 | 1016.7 |
| 20260505024633 | 18 | 225 | 4.8 | 11.3 | 0.00 | 0.00 | 0.00 | 73 | 1016.6 |
| 20260505023733 | 18 | 216 | 4.8 | 11.3 | 0.00 | 0.00 | 0.00 | 73 | 1016.7 |
| 20260505022833 | 18 | 209 | 6.4 | 16.1 | 0.00 | 0.00 | 0.00 | 73 | 1016.7 |
| 20260505021933 | 18 | 245 | 4.8 | 11.3 | 0.00 | 0.00 | 0.00 | 73 | 1016.8 |
| 20260505021033 | 18 | 214 | 4.8 | 12.9 | 0.00 | 0.00 | 0.00 | 73 | 1016.7 |
| 20260505015233 | 18 | 228 | 6.4 | 14.5 | 0.00 | 0.00 | 0.00 | 73 | 1016.7 |
| 20260505014333 | 18 | 223 | 6.4 | 12.9 | 0.00 | 0.00 | 0.00 | 72 | 1016.5 |
| 20260505012533 | 18 | 237 | 6.4 | 12.9 | 0.00 | 0.00 | 0.00 | 71 | 1016.3 |
| 20260505011633 | 18 | 230 | 6.4 | 12.9 | 0.00 | 0.00 | 0.00 | 71 | 1016.2 |
| 20260505010733 | 18 | 218 | 6.4 | 16.1 | 0.00 | 0.00 | 0.00 | 71 | 1016.1 |
| 20260505005833 | 18 | 203 | 8.0 | 17.7 | 0.00 | 0.00 | 0.00 | 71 | 1016.1 |
| 20260505004033 | 18 | 241 | 6.4 | 12.9 | 0.00 | 0.00 | 0.00 | 70 | 1015.9 |
| 20260505003133 | 18 | 241 | 6.4 | 14.5 | 0.00 | 0.00 | 0.00 | 69 | 1015.8 |
| 20260505002233 | 18 | 213 | 8.0 | 17.7 | 0.00 | 0.00 | 0.00 | 70 | 1015.8 |
| 20260505001333 | 18 | 226 | 8.0 | 16.1 | 0.00 | 0.00 | 0.00 | 69 | 1015.8 |
| 20260505000433 | 19 | 236 | 8.0 | 20.9 | 0.00 | 0.00 | 0.00 | 68 | 1015.8 |
| 20260504235534 | 19 | 251 | 8.0 | 24.1 | 0.00 | 0.00 | 0.00 | 67 | 1015.7 |
| 20260504234633 | 20 | 222 | 8.0 | 20.9 | 0.00 | 0.00 | 0.00 | 66 | 1015.7 |
| 20260504233733 | 20 | 230 | 8.0 | 22.5 | 0.00 | 0.00 | 0.00 | 65 | 1015.6 |
| 20260504232833 | 21 | 204 | 9.7 | 20.9 | 0.00 | 0.00 | 0.00 | 62 | 1015.6 |
| 20260504231933 | 22 | 185 | 9.7 | 24.1 | 0.00 | 0.00 | 0.00 | 59 | 1015.6 |
| 20260504231033 | 21 | 255 | 11.3 | 24.1 | 0.00 | 0.00 | 0.00 | 62 | 1015.7 |
| 20260504230133 | 20 | 215 | 9.7 | 20.9 | 0.00 | 0.00 | 0.00 | 64 | 1015.6 |
| 20260504225233 | 20 | 197 | 9.7 | 20.9 | 0.00 | 0.00 | 0.00 | 64 | 1015.6 |
| 20260504224333 | 20 | 243 | 12.9 | 25.7 | 0.00 | 0.00 | 0.00 | 64 | 1015.5 |
| 20260504223433 | 20 | 212 | 11.3 | 24.1 | 0.00 | 0.00 | 0.00 | 63 | 1015.5 |
| 20260504222533 | 20 | 130 | 9.7 | 20.9 | 0.00 | 0.00 | 0.00 | 64 | 1015.5 |
| 20260504221633 | 20 | 227 | 9.7 | 22.5 | 0.00 | 0.00 | 0.00 | 63 | 1015.5 |
| 20260504220733 | 20 | 223 | 8.0 | 29.0 | 0.00 | 0.00 | 0.00 | 64 | 1015.6 |
| 20260504215833 | 20 | 199 | 11.3 | 24.1 | 0.00 | 0.00 | 0.00 | 65 | 1015.5 |